Time;durP1;ratioP1;P1;durP2;ratioP2;P2;SDS_P1;SDS_P2;PMS_P1;PMS_P2;Temp;Humidity;BMP_temperature;BMP_pressure;BME280_temperature;BME280_humidity;BME280_pressure;Samples;Min_cycle;Max_cycle;Signal;HPM_P1;HPM_P2
2022/12/06 00:01:28;;;;;;;37.50;23.48;;;;;;;4.37;77.94;101606.34;5022210;28;20045;-68
2022/12/06 00:03:58;;;;;;;36.83;22.88;;;;;;;4.29;78.47;101604.84;5014370;28;20042;-67
2022/12/06 00:06:27;;;;;;;39.03;23.52;;;;;;;4.26;78.78;101599.09;5012875;28;20381;-66
2022/12/06 00:08:55;;;;;;;38.45;23.98;;;;;;;4.32;78.65;101596.16;5016614;28;20068;-66
2022/12/06 00:11:28;;;;;;;38.00;23.92;;;;;;;4.27;78.69;101593.38;5020776;28;20056;-67
2022/12/06 00:14:03;;;;;;;38.55;23.73;;;;;;;4.46;78.63;101586.56;5014767;28;20397;-67
2022/12/06 00:16:31;;;;;;;38.08;23.98;;;;;;;4.52;77.93;101587.44;5018261;28;20512;-67
2022/12/06 00:19:00;;;;;;;38.67;23.20;;;;;;;4.55;77.74;101585.03;5037225;28;20456;-67
2022/12/06 00:21:34;;;;;;;37.13;24.02;;;;;;;4.57;78.23;101582.91;5024611;28;20080;-67
2022/12/06 00:24:05;;;;;;;36.58;23.75;;;;;;;4.75;77.40;101579.03;5000940;28;20046;-67
2022/12/06 00:26:38;;;;;;;37.67;23.92;;;;;;;4.85;77.38;101583.78;5019146;28;20053;-67
2022/12/06 00:29:06;;;;;;;38.20;23.30;;;;;;;4.69;77.63;101569.13;5053525;28;20056;-67
2022/12/06 00:31:34;;;;;;;38.53;24.15;;;;;;;4.74;77.57;101568.38;5008900;28;20057;-67
2022/12/06 00:34:02;;;;;;;37.38;22.95;;;;;;;4.64;77.75;101562.78;5018544;28;20126;-67
2022/12/06 00:36:35;;;;;;;36.95;23.25;;;;;;;4.61;77.46;101569.56;5019173;28;20053;-67
2022/12/06 00:39:08;;;;;;;36.67;23.52;;;;;;;4.65;77.59;101562.53;5036975;28;20045;-67
2022/12/06 00:41:36;;;;;;;35.20;23.35;;;;;;;4.38;78.56;101565.19;5036296;28;20473;-68
2022/12/06 00:44:04;;;;;;;39.63;24.30;;;;;;;4.34;79.17;101564.03;4987295;28;20045;-68
2022/12/06 00:46:32;;;;;;;36.83;23.75;;;;;;;4.40;79.33;101567.66;5032134;28;20057;-68
2022/12/06 00:49:00;;;;;;;39.25;24.10;;;;;;;4.56;78.77;101559.44;5020455;28;20046;-68
2022/12/06 00:51:30;;;;;;;39.15;24.55;;;;;;;4.65;78.52;101556.25;5037656;28;20046;-68
2022/12/06 00:53:58;;;;;;;37.88;23.77;;;;;;;4.80;77.80;101561.88;5019334;28;20041;-68
2022/12/06 00:56:25;;;;;;;39.05;23.60;;;;;;;4.75;78.37;101556.38;5019207;28;20056;-68
2022/12/06 00:58:53;;;;;;;35.42;23.60;;;;;;;4.77;77.93;101552.31;5036688;28;20041;-68
2022/12/06 01:01:27;;;;;;;39.10;23.95;;;;;;;4.76;78.01;101560.75;5035392;28;20050;-68
2022/12/06 01:03:58;;;;;;;40.38;24.65;;;;;;;4.75;78.29;101550.91;5024259;28;20053;-68
2022/12/06 01:06:32;;;;;;;38.38;22.73;;;;;;;4.71;78.23;101555.25;5026305;28;20382;-68
2022/12/06 01:09:02;;;;;;;42.22;25.17;;;;;;;4.63;78.65;101556.50;5019819;28;20065;-68
2022/12/06 01:11:29;;;;;;;38.70;24.38;;;;;;;4.67;79.01;101559.56;5036680;28;20370;-67
2022/12/06 01:13:57;;;;;;;42.30;24.33;;;;;;;4.79;78.89;101555.63;5035977;28;20045;-67
2022/12/06 01:16:27;;;;;;;39.72;25.02;;;;;;;4.91;78.10;101556.31;5019540;28;20049;-67
2022/12/06 01:18:57;;;;;;;40.22;24.60;;;;;;;4.68;78.58;101564.75;5036389;28;20053;-67
2022/12/06 01:21:26;;;;;;;41.72;24.83;;;;;;;4.45;79.61;101559.53;5014569;28;20519;-67
2022/12/06 01:23:53;;;;;;;42.53;25.52;;;;;;;4.67;79.01;101562.28;5007089;28;20057;-69
2022/12/06 01:26:22;;;;;;;40.50;25.58;;;;;;;4.65;79.29;101565.28;5014969;28;20550;-67
2022/12/06 01:28:49;;;;;;;40.40;25.50;;;;;;;4.57;79.31;101560.22;5036941;28;20053;-69
2022/12/06 01:31:18;;;;;;;42.55;26.50;;;;;;;4.57;79.28;101552.88;5044898;28;20061;-69
2022/12/06 01:33:46;;;;;;;42.15;25.73;;;;;;;4.73;79.49;101550.34;5035177;28;20500;-68
2022/12/06 01:36:22;;;;;;;42.28;25.88;;;;;;;4.73;79.34;101553.06;5036067;28;20045;-69
2022/12/06 01:38:51;;;;;;;40.45;25.30;;;;;;;4.64;79.90;101549.16;5038719;28;20068;-69
2022/12/06 01:41:20;;;;;;;43.17;26.17;;;;;;;4.56;79.99;101548.53;5038279;28;20053;-70
2022/12/06 01:43:48;;;;;;;39.28;25.20;;;;;;;4.47;80.49;101554.66;5053477;28;20041;-69
2022/12/06 01:46:38;;;;;;;40.72;25.52;;;;;;;4.58;80.79;101551.00;5040007;28;20636;-69
2022/12/06 01:49:18;;;;;;;38.42;25.30;;;;;;;4.69;80.04;101551.94;4983783;28;20054;-69
2022/12/06 01:51:54;;;;;;;38.75;24.33;;;;;;;4.60;80.51;101552.38;5024036;28;20049;-70
2022/12/06 01:54:22;;;;;;;40.90;24.58;;;;;;;4.63;80.74;101555.66;4983285;28;20049;-68
2022/12/06 01:56:50;;;;;;;43.28;26.10;;;;;;;4.68;80.47;101562.03;5012591;28;20508;-69
2022/12/06 01:59:19;;;;;;;44.05;25.15;;;;;;;4.60;80.55;101559.75;5017094;28;20060;-69
2022/12/06 02:01:46;;;;;;;40.55;24.80;;;;;;;4.47;80.89;101560.94;5027480;28;20050;-69
2022/12/06 02:04:15;;;;;;;43.25;25.77;;;;;;;4.57;81.24;101554.78;5002979;28;20049;-69
2022/12/06 02:06:43;;;;;;;42.85;26.73;;;;;;;4.63;81.31;101559.22;5029088;28;20065;-70
2022/12/06 02:09:11;;;;;;;38.88;24.50;;;;;;;4.62;81.43;101564.94;5034933;28;20049;-69
2022/12/06 02:11:39;;;;;;;40.70;24.58;;;;;;;4.76;80.95;101558.84;5037617;28;20048;-70
2022/12/06 02:14:09;;;;;;;40.38;25.80;;;;;;;4.68;80.85;101563.91;5026711;28;20046;-70
2022/12/06 02:16:59;;;;;;;40.10;24.13;;;;;;;4.80;80.63;101565.44;5018403;28;20049;-70
2022/12/06 02:20:07;;;;;;;39.90;23.33;;;;;;;4.94;80.62;101566.69;5036519;28;20056;-69
2022/12/06 02:23:04;;;;;;;36.35;23.08;;;;;;;4.68;81.48;101566.66;5004265;28;20065;-69
2022/12/06 02:26:00;;;;;;;37.33;24.45;;;;;;;4.54;81.32;101568.94;5008036;28;20064;-68
2022/12/06 02:28:55;;;;;;;39.25;24.50;;;;;;;4.56;82.20;101562.16;5036123;28;20041;-68
2022/12/06 02:31:38;;;;;;;37.10;22.90;;;;;;;4.47;82.53;101565.56;5024638;28;20065;-69
2022/12/06 02:34:21;;;;;;;38.47;23.55;;;;;;;4.38;82.90;101567.91;5033833;28;20050;-69
2022/12/06 02:37:06;;;;;;;36.88;23.92;;;;;;;4.53;83.10;101572.75;5023892;28;20053;-69
2022/12/06 02:39:37;;;;;;;37.50;21.85;;;;;;;4.38;83.46;101567.91;5014836;28;20424;-70
2022/12/06 02:42:08;;;;;;;38.25;22.88;;;;;;;4.41;83.85;101566.59;5041165;28;20049;-69
2022/12/06 02:44:41;;;;;;;35.70;22.17;;;;;;;4.64;82.85;101560.06;5027147;28;20559;-66
2022/12/06 02:47:13;;;;;;;39.75;22.45;;;;;;;4.73;82.24;101553.06;5032628;28;20068;-66
2022/12/06 02:49:45;;;;;;;36.15;22.77;;;;;;;4.62;82.46;101563.03;4989787;28;20053;-68
2022/12/06 02:52:13;;;;;;;35.00;20.98;;;;;;;4.74;82.87;101554.72;5027305;28;20054;-70
2022/12/06 02:54:42;;;;;;;36.50;21.67;;;;;;;4.55;82.97;101556.94;4997930;28;20529;-69
2022/12/06 02:57:10;;;;;;;;;;;;;;;4.64;83.36;101555.41;5042953;28;20046;-68
2022/12/06 02:59:37;;;;;;;38.72;21.95;;;;;;;4.40;83.88;101554.84;5016667;28;19932;-69
2022/12/06 03:02:08;;;;;;;36.75;21.67;;;;;;;4.54;84.42;101556.13;5012745;28;20504;-69
2022/12/06 03:04:50;;;;;;;37.25;22.48;;;;;;;4.41;84.14;101559.22;5035800;28;20056;-69
2022/12/06 03:07:32;;;;;;;35.10;20.48;;;;;;;4.54;83.91;101560.75;5029092;28;20053;-69
2022/12/06 03:10:06;;;;;;;35.40;21.60;;;;;;;4.76;83.27;101564.28;5020458;28;20065;-69
2022/12/06 03:12:51;;;;;;;33.03;20.98;;;;;;;4.85;82.15;101562.78;5025671;28;20050;-68
2022/12/06 03:15:27;;;;;;;36.33;21.42;;;;;;;4.84;82.70;101555.69;5016970;28;20049;-69
2022/12/06 03:17:59;;;;;;;37.88;21.73;;;;;;;4.83;82.48;101564.13;5000819;28;20056;-69
2022/12/06 03:20:41;;;;;;;37.80;21.55;;;;;;;4.76;83.17;101556.09;5035264;28;20053;-69
2022/12/06 03:23:13;;;;;;;34.30;20.85;;;;;;;4.74;83.23;101562.91;5005078;28;20058;-70
2022/12/06 03:25:41;;;;;;;37.05;21.85;;;;;;;4.81;83.09;101569.00;5002310;28;20053;-69
2022/12/06 03:28:12;;;;;;;35.70;21.30;;;;;;;4.78;83.75;101570.31;5020850;28;20053;-69
2022/12/06 03:30:43;;;;;;;36.50;22.40;;;;;;;4.81;83.04;101563.53;4999874;28;20532;-69
2022/12/06 03:33:12;;;;;;;36.20;20.80;;;;;;;4.68;83.33;101559.28;5033755;28;20057;-69
2022/12/06 03:35:39;;;;;;;34.45;21.63;;;;;;;4.69;83.85;101560.94;4988366;28;20046;-69
2022/12/06 03:38:11;;;;;;;34.67;20.95;;;;;;;4.71;84.35;101563.44;5033427;28;20056;-69
2022/12/06 03:40:41;;;;;;;37.00;23.02;;;;;;;4.70;84.10;101561.75;5035834;28;20057;-69
2022/12/06 03:43:09;;;;;;;38.55;22.90;;;;;;;4.79;83.89;101561.06;5020406;28;20539;-70
2022/12/06 03:45:47;;;;;;;40.97;22.77;;;;;;;4.75;84.07;101567.28;5017122;28;20053;-68
2022/12/06 03:48:18;;;;;;;41.78;24.83;;;;;;;4.71;84.37;101556.03;5017005;28;20053;-68
2022/12/06 03:50:53;;;;;;;38.97;22.80;;;;;;;4.76;84.61;101561.56;5015818;28;20060;-69
2022/12/06 03:53:25;;;;;;;40.10;23.83;;;;;;;4.86;84.33;101560.88;5022856;28;20050;-69
2022/12/06 03:55:52;;;;;;;38.90;23.40;;;;;;;4.87;84.63;101557.06;5004500;28;20048;-68
2022/12/06 03:58:19;;;;;;;40.65;23.77;;;;;;;4.91;84.20;101558.19;5028144;28;20061;-68
2022/12/06 04:00:47;;;;;;;44.15;24.35;;;;;;;4.78;84.97;101553.16;5033511;28;20045;-68
2022/12/06 04:03:14;;;;;;;44.10;24.08;;;;;;;4.73;85.04;101566.69;5034568;28;20084;-69
2022/12/06 04:05:42;;;;;;;39.08;23.40;;;;;;;4.75;85.34;101557.19;5049310;28;20037;-72
2022/12/06 04:08:09;;;;;;;45.08;24.25;;;;;;;4.83;85.65;101559.47;5033888;28;20057;-70
2022/12/06 04:10:36;;;;;;;49.15;25.25;;;;;;;4.76;85.35;101561.56;5014266;28;20056;-70
2022/12/06 04:13:05;;;;;;;46.50;25.20;;;;;;;4.83;85.47;101566.84;5054429;28;20049;-70
2022/12/06 04:15:37;;;;;;;43.08;24.77;;;;;;;4.75;85.47;101559.09;5054026;28;20045;-69
2022/12/06 04:18:14;;;;;;;46.80;25.40;;;;;;;4.62;86.44;101556.75;5036819;28;20049;-69
2022/12/06 04:23:44;;;;;;;45.20;25.08;;;;;;;4.58;87.03;101559.97;5008450;28;20069;-68
2022/12/06 04:26:14;;;;;;;46.83;26.55;;;;;;;4.75;86.61;101561.81;5012035;28;20057;-70
2022/12/06 04:39:46;;;;;;;56.95;30.38;;;;;;;4.77;86.22;101555.03;5052759;28;20049;-70
2022/12/06 04:44:59;;;;;;;54.97;30.23;;;;;;;5.03;85.12;101547.97;5040771;28;20045;-68
2022/12/06 04:47:26;;;;;;;54.72;29.83;;;;;;;5.07;85.47;101549.94;5033979;28;20076;-69
2022/12/06 04:49:54;;;;;;;53.08;29.33;;;;;;;5.05;85.12;101541.19;5052796;28;20057;-69
2022/12/06 04:52:21;;;;;;;57.22;29.95;;;;;;;5.17;84.71;101541.00;5048237;28;20049;-69
2022/12/06 04:54:48;;;;;;;53.35;29.35;;;;;;;5.26;84.21;101547.66;5033247;28;20496;-69
2022/12/06 04:57:16;;;;;;;52.78;28.50;;;;;;;5.04;84.64;101541.44;5016644;28;20049;-69
2022/12/06 04:59:45;;;;;;;49.85;27.90;;;;;;;5.10;84.98;101549.41;5053921;28;20056;-71
2022/12/06 05:02:14;;;;;;;52.33;28.35;;;;;;;5.16;84.78;101537.44;5053812;28;20049;-70
2022/12/06 05:04:41;;;;;;;49.20;27.23;;;;;;;5.24;83.85;101541.63;5034421;28;20528;-69
2022/12/06 05:07:10;;;;;;;57.03;29.33;;;;;;;5.16;84.75;101540.19;5023070;28;20049;-68
2022/12/06 05:09:37;;;;;;;48.22;27.85;;;;;;;5.10;84.48;101537.66;5019352;28;20045;-69
2022/12/06 05:12:05;;;;;;;52.97;27.52;;;;;;;4.99;84.94;101539.47;5036580;28;20547;-69
2022/12/06 05:14:32;;;;;;;51.38;29.67;;;;;;;5.07;84.66;101535.47;5019489;28;20476;-69
2022/12/06 05:17:00;;;;;;;49.42;27.25;;;;;;;5.24;85.44;101539.72;5024115;28;20468;-68
2022/12/06 05:19:27;;;;;;;55.63;30.13;;;;;;;5.05;84.95;101538.44;5016300;28;20057;-69
2022/12/06 05:21:55;;;;;;;51.03;29.42;;;;;;;4.97;85.55;101533.44;5031432;28;20053;-69
2022/12/06 05:24:22;;;;;;;56.50;30.33;;;;;;;4.98;86.12;101534.25;5016983;28;20520;-70
2022/12/06 05:26:49;;;;;;;55.25;29.75;;;;;;;4.85;86.21;101538.19;5030867;28;20052;-70
2022/12/06 05:29:16;;;;;;;56.60;29.75;;;;;;;4.85;86.18;101538.19;5022738;28;20528;-70
2022/12/06 05:31:44;;;;;;;54.10;28.70;;;;;;;4.95;85.97;101532.06;5011791;28;20065;-70
2022/12/06 05:34:11;;;;;;;54.28;29.13;;;;;;;5.08;85.46;101528.91;5035913;28;20409;-70
2022/12/06 05:36:38;;;;;;;55.13;29.08;;;;;;;4.96;86.09;101525.50;5027606;28;20056;-69
2022/12/06 05:39:06;;;;;;;50.72;28.15;;;;;;;4.88;86.40;101529.50;5037105;28;20531;-69
2022/12/06 05:41:33;;;;;;;50.25;28.65;;;;;;;5.11;86.52;101525.69;5017493;28;20643;-70
2022/12/06 05:44:01;;;;;;;49.63;29.55;;;;;;;5.32;85.47;101522.03;5022786;28;20049;-71
2022/12/06 05:46:29;;;;;;;53.60;29.42;;;;;;;5.34;84.43;101523.44;5046171;28;20045;-70
2022/12/06 05:48:56;;;;;;;53.67;28.52;;;;;;;5.51;84.16;101517.81;5056542;28;20056;-70
2022/12/06 05:51:23;;;;;;;53.50;29.60;;;;;;;5.54;83.46;101517.34;5038254;28;20068;-70
2022/12/06 05:53:51;;;;;;;56.42;29.35;;;;;;;5.61;83.73;101517.94;5020366;28;20062;-69
2022/12/06 05:56:18;;;;;;;57.58;30.27;;;;;;;5.46;83.16;101509.59;5007659;28;20049;-69
2022/12/06 05:58:46;;;;;;;50.72;28.73;;;;;;;5.67;83.32;101508.69;5035673;28;20125;-69
2022/12/06 06:01:13;;;;;;;52.22;27.73;;;;;;;5.56;83.28;101513.25;5035054;28;20504;-70
2022/12/06 06:03:41;;;;;;;55.00;29.48;;;;;;;5.44;83.79;101517.25;5018890;28;20056;-69
2022/12/06 06:06:14;;;;;;;57.30;29.63;;;;;;;5.20;84.25;101519.47;5044145;28;20056;-69
2022/12/06 06:08:41;;;;;;;53.60;29.92;;;;;;;5.32;84.52;101514.66;5017159;28;20054;-68
2022/12/06 06:11:09;;;;;;;51.17;27.52;;;;;;;5.43;84.47;101521.88;5024300;28;20440;-69
2022/12/06 06:13:36;;;;;;;48.88;27.10;;;;;;;5.23;83.56;101526.34;5018072;28;20421;-69
2022/12/06 06:16:03;;;;;;;52.13;27.65;;;;;;;5.06;84.98;101517.41;5018107;28;20072;-69
2022/12/06 06:18:31;;;;;;;49.90;27.67;;;;;;;4.92;85.96;101527.91;5034939;28;20045;-69
2022/12/06 06:20:59;;;;;;;50.47;27.70;;;;;;;4.95;86.80;101529.31;5024717;28;20140;-69
2022/12/06 06:23:27;;;;;;;48.55;26.63;;;;;;;5.23;85.95;101529.88;5014370;28;20058;-70
2022/12/06 06:25:55;;;;;;;48.38;27.25;;;;;;;5.32;85.20;101539.25;5010021;28;20045;-69
2022/12/06 06:28:23;;;;;;;51.45;27.88;;;;;;;5.38;85.09;101530.03;5023910;28;20065;-68
2022/12/06 06:30:50;;;;;;;49.22;26.52;;;;;;;5.67;84.69;101533.28;5036651;28;20061;-68
2022/12/06 06:33:19;;;;;;;45.55;24.15;;;;;;;5.48;84.05;101529.28;5036376;28;20049;-67
2022/12/06 06:35:47;;;;;;;43.17;24.23;;;;;;;5.31;84.37;101523.97;5033153;28;20045;-72
2022/12/06 06:38:14;;;;;;;42.58;24.10;;;;;;;5.26;85.05;101534.00;4982339;28;20402;-72
2022/12/06 06:40:42;;;;;;;43.45;25.48;;;;;;;5.15;85.80;101535.81;5023920;28;20617;-71
2022/12/06 06:43:19;;;;;;;42.13;24.30;;;;;;;5.28;86.08;101543.56;5014213;28;20053;-67
2022/12/06 06:45:56;;;;;;;40.33;22.60;;;;;;;5.32;85.28;101535.69;5040023;28;20053;-68
2022/12/06 06:48:24;;;;;;;42.28;23.98;;;;;;;5.27;85.69;101541.94;5037992;28;20067;-68
2022/12/06 06:50:51;;;;;;;45.40;24.13;;;;;;;5.26;85.86;101542.19;5036337;28;20052;-68
2022/12/06 06:53:26;;;;;;;43.63;23.67;;;;;;;5.47;85.79;101544.03;5012513;28;20164;-67
2022/12/06 06:55:54;;;;;;;40.03;22.35;;;;;;;5.44;85.38;101541.84;5007200;28;20552;-67
2022/12/06 06:58:21;;;;;;;42.03;22.77;;;;;;;5.50;84.81;101543.53;5051131;28;20046;-67
2022/12/06 07:00:54;;;;;;;43.45;23.25;;;;;;;5.51;85.47;101550.63;4998739;28;20054;-68
2022/12/06 07:03:23;;;;;;;40.55;23.55;;;;;;;5.56;85.38;101545.22;5032154;28;20072;-72
2022/12/06 07:05:57;;;;;;;41.50;23.75;;;;;;;5.38;85.07;101548.31;5022810;28;20400;-67
2022/12/06 07:08:27;;;;;;;48.83;24.05;;;;;;;5.29;86.46;101549.88;5036744;28;20065;-67
2022/12/06 07:10:55;;;;;;;41.00;24.13;;;;;;;5.29;86.13;101544.41;5053556;28;20049;-68
2022/12/06 07:13:23;;;;;;;44.33;24.17;;;;;;;5.35;86.91;101546.13;5032091;28;20143;-65
2022/12/06 07:15:51;;;;;;;40.67;23.63;;;;;;;5.56;87.04;101537.03;5040588;28;20451;-66
2022/12/06 07:18:19;;;;;;;54.28;28.77;;;;;;;5.83;86.17;101542.44;5053524;28;20154;-69
2022/12/06 07:20:47;;;;;;;45.15;25.30;;;;;;;5.89;84.53;101539.50;5036959;28;20048;-68
2022/12/06 07:23:15;;;;;;;43.92;24.13;;;;;;;5.80;85.49;101535.56;5027040;28;20053;-70
2022/12/06 07:25:42;;;;;;;44.25;25.20;;;;;;;5.82;85.28;101535.31;5035339;28;20049;-70
2022/12/06 07:28:09;;;;;;;41.90;24.45;;;;;;;5.72;85.35;101536.03;5055178;28;20053;-67
2022/12/06 07:30:36;;;;;;;45.67;24.80;;;;;;;5.24;86.88;101536.16;5053297;28;20052;-69
2022/12/06 07:33:04;;;;;;;48.85;26.42;;;;;;;5.40;87.15;101540.69;5055001;28;20056;-68
2022/12/06 07:35:31;;;;;;;48.90;26.85;;;;;;;5.79;86.79;101542.13;5048675;28;20049;-69
2022/12/06 07:38:19;;;;;;;46.63;25.58;;;;;;;5.82;85.92;101544.34;5054414;28;20049;-68
2022/12/06 07:40:46;;;;;;;46.00;26.05;;;;;;;5.91;86.21;101550.19;5026789;28;20057;-68
2022/12/06 07:46:16;;;;;;;50.70;27.08;;;;;;;5.83;85.83;101534.25;5046195;28;20048;-69
2022/12/06 07:48:44;;;;;;;46.03;26.38;;;;;;;6.04;84.73;101536.03;5017392;28;20046;-69
2022/12/06 07:51:11;;;;;;;48.78;27.17;;;;;;;6.15;84.36;101538.59;5042080;28;20057;-72
2022/12/06 07:53:38;;;;;;;54.58;28.83;;;;;;;5.95;84.66;101538.44;5025712;28;20053;-73
2022/12/06 07:56:06;;;;;;;58.10;28.45;;;;;;;6.03;85.00;101532.50;5028578;28;20646;-70
2022/12/06 07:58:34;;;;;;;54.72;28.27;;;;;;;6.16;84.39;101537.50;5036115;28;20064;-70
2022/12/06 08:01:02;;;;;;;56.67;29.70;;;;;;;6.12;84.05;101539.09;5034217;28;20690;-66
2022/12/06 08:03:30;;;;;;;57.15;29.00;;;;;;;5.74;85.67;101544.81;5020568;28;20057;-66
2022/12/06 08:05:58;;;;;;;62.80;31.17;;;;;;;5.54;86.56;101548.19;5053960;28;20049;-66
2022/12/06 08:08:25;;;;;;;60.13;30.20;;;;;;;5.12;88.06;101550.00;5054331;28;20064;-67
2022/12/06 08:10:59;;;;;;;59.13;29.83;;;;;;;5.53;89.23;101545.72;4999171;28;20049;-65
2022/12/06 08:13:27;;;;;;;58.10;30.00;;;;;;;5.78;88.69;101559.63;5054561;28;20053;-66
2022/12/06 08:15:55;;;;;;;61.40;30.42;;;;;;;5.86;88.47;101559.16;5019841;28;20041;-67
2022/12/06 08:18:24;;;;;;;61.58;29.60;;;;;;;6.06;88.47;101558.47;5052859;28;20049;-68
2022/12/06 08:20:54;;;;;;;62.38;29.80;;;;;;;5.65;87.49;101562.78;5028767;28;20049;-67
2022/12/06 08:23:21;;;;;;;59.75;30.58;;;;;;;5.82;88.05;101568.94;5005624;28;20061;-67
2022/12/06 08:26:00;;;;;;;59.58;30.83;;;;;;;5.62;88.73;101577.78;5007233;28;20578;-67
2022/12/06 08:28:28;;;;;;;65.65;31.70;;;;;;;5.02;89.23;101573.63;5032964;28;20052;-67
2022/12/06 08:30:55;;;;;;;66.65;30.85;;;;;;;5.09;90.58;101577.78;5043263;28;20050;-67
2022/12/06 08:33:31;;;;;;;68.47;31.65;;;;;;;5.07;91.76;101576.41;5014427;28;20062;-67
2022/12/06 08:35:58;;;;;;;66.65;32.55;;;;;;;5.48;91.91;101582.03;5009545;28;20064;-67
2022/12/06 08:38:27;;;;;;;72.07;32.80;;;;;;;5.22;91.74;101577.41;5058287;28;20064;-66
2022/12/06 08:40:54;;;;;;;72.30;32.03;;;;;;;4.77;92.79;101590.53;5034386;28;20151;-68
2022/12/06 08:43:22;;;;;;;74.78;34.38;;;;;;;4.83;94.62;101589.50;5037605;28;20504;-66
2022/12/06 08:45:50;;;;;;;74.15;33.03;;;;;;;5.23;95.20;101597.34;5011103;28;20139;-67
2022/12/06 08:48:18;;;;;;;64.27;31.50;;;;;;;5.64;94.22;101602.97;5040613;28;20060;-67
2022/12/06 08:50:46;;;;;;;68.35;32.22;;;;;;;5.69;92.27;101605.75;5041935;28;20045;-68
2022/12/06 08:53:13;;;;;;;74.25;33.42;;;;;;;6.02;90.51;101609.31;5007364;28;20057;-67
2022/12/06 08:55:41;;;;;;;72.35;32.88;;;;;;;6.00;89.40;101606.03;5008945;28;20052;-67
2022/12/06 08:58:08;;;;;;;70.38;32.85;;;;;;;5.83;89.81;101610.78;5007058;28;20053;-68
2022/12/06 09:00:35;;;;;;;76.18;34.05;;;;;;;5.74;91.81;101613.16;5024895;28;20054;-67
2022/12/06 09:03:03;;;;;;;77.90;34.75;;;;;;;4.97;93.43;101604.41;5031236;28;20057;-67
2022/12/06 09:05:30;;;;;;;82.60;36.65;;;;;;;4.95;95.73;101603.81;5022484;28;20061;-67
2022/12/06 09:07:57;;;;;;;79.78;35.03;;;;;;;4.99;96.11;101607.72;5044340;28;20502;-68
2022/12/06 09:10:25;;;;;;;80.68;37.10;;;;;;;5.21;96.31;101613.97;5018193;28;20416;-67
2022/12/06 09:12:54;;;;;;;77.68;36.00;;;;;;;5.32;95.92;101615.72;5024107;28;20057;-70
2022/12/06 09:15:21;;;;;;;78.00;34.50;;;;;;;5.15;95.66;101622.38;5014989;28;20053;-66
2022/12/06 09:17:49;;;;;;;77.28;34.38;;;;;;;4.79;96.72;101621.13;5026789;28;20041;-67
2022/12/06 09:20:16;;;;;;;77.43;34.92;;;;;;;5.17;97.41;101621.03;5002537;28;20049;-67
2022/12/06 09:22:44;;;;;;;74.60;35.22;;;;;;;5.03;97.76;101627.97;5030651;28;20040;-67
2022/12/06 09:25:11;;;;;;;78.35;35.00;;;;;;;5.56;98.16;101621.75;5037004;28;20053;-68
2022/12/06 09:27:39;;;;;;;79.85;35.40;;;;;;;5.11;96.90;101619.31;5037485;28;20053;-66
2022/12/06 09:30:07;;;;;;;79.18;34.88;;;;;;;5.24;97.66;101620.84;5043723;28;20041;-67
2022/12/06 09:32:34;;;;;;;75.40;33.08;;;;;;;5.52;96.74;101618.69;5047844;28;20047;-67
2022/12/06 09:35:02;;;;;;;78.25;34.60;;;;;;;5.37;96.94;101614.97;5018843;28;20067;-68
2022/12/06 09:37:31;;;;;;;77.68;35.00;;;;;;;5.43;97.25;101622.13;5012024;28;20052;-67
2022/12/06 09:40:01;;;;;;;77.15;33.90;;;;;;;4.84;97.33;101623.06;5019322;28;20048;-67
2022/12/06 09:42:59;;;;;;;80.05;35.38;;;;;;;5.22;99.19;101621.09;4986002;28;20148;-66
2022/12/06 09:45:39;;;;;;;80.25;34.33;;;;;;;5.37;98.56;101623.19;5033869;28;20045;-67
2022/12/06 09:48:25;;;;;;;85.10;36.15;;;;;;;5.63;98.73;101630.56;5034544;28;20057;-66
2022/12/06 09:51:05;;;;;;;81.22;36.10;;;;;;;5.56;96.90;101638.13;5035086;28;20456;-66
2022/12/06 09:53:36;;;;;;;81.80;35.55;;;;;;;5.97;96.87;101637.44;5034363;28;20057;-66
2022/12/06 09:56:05;;;;;;;71.47;33.97;;;;;;;5.98;95.50;101619.94;5031017;28;20057;-65
2022/12/06 09:58:32;;;;;;;72.95;33.72;;;;;;;5.40;95.58;101628.94;5035423;28;20045;-66
2022/12/06 10:01:12;;;;;;;70.68;32.90;;;;;;;5.24;96.86;101623.56;5036088;28;20048;-66
2022/12/06 10:04:00;;;;;;;70.28;32.30;;;;;;;5.29;98.01;101629.91;5035218;28;20060;-66
2022/12/06 10:06:36;;;;;;;77.47;33.55;;;;;;;4.68;98.90;101640.31;5036559;28;20523;-66
2022/12/06 10:09:09;;;;;;;78.03;33.00;;;;;;;4.98;100.00;101632.53;5035023;28;20049;-66
2022/12/06 10:12:00;;;;;;;78.32;34.70;;;;;;;5.13;100.00;101640.91;5034299;28;20045;-65
2022/12/06 10:14:44;;;;;;;76.50;33.65;;;;;;;4.87;99.42;101636.22;5035263;28;20048;-66
2022/12/06 10:17:37;;;;;;;74.75;32.35;;;;;;;5.00;100.00;101635.84;5015315;28;20050;-66
2022/12/06 10:20:08;;;;;;;73.10;31.75;;;;;;;5.43;100.00;101625.69;5051513;28;20061;-66
2022/12/06 10:23:15;;;;;;;73.43;33.17;;;;;;;5.59;99.01;101621.22;5021874;28;20050;-66
2022/12/06 10:25:56;;;;;;;72.25;32.88;;;;;;;5.52;98.13;101628.78;5019291;28;20341;-66
2022/12/06 10:28:31;;;;;;;70.53;31.98;;;;;;;5.83;97.55;101627.19;5036560;28;20072;-66
2022/12/06 10:31:05;;;;;;;66.60;30.63;;;;;;;5.22;97.09;101623.81;5053775;28;20053;-65
2022/12/06 10:34:06;;;;;;;68.75;30.30;;;;;;;5.00;97.60;101636.69;4983610;28;20117;-66
2022/12/06 10:36:56;;;;;;;61.35;27.38;;;;;;;4.83;99.04;101635.88;5020975;28;20037;-65
2022/12/06 10:39:32;;;;;;;63.60;28.63;;;;;;;4.95;99.44;101638.50;5031624;28;20060;-66
2022/12/06 10:42:21;;;;;;;61.05;27.65;;;;;;;4.60;100.00;101641.59;5035322;28;20064;-66
2022/12/06 10:48:18;;;;;;;59.63;28.83;;;;;;;5.40;100.00;101636.31;5022530;28;20061;-66
2022/12/06 10:50:49;;;;;;;57.90;27.35;;;;;;;5.31;99.46;101632.38;5042910;28;20432;-68
2022/12/06 10:53:18;;;;;;;58.78;27.23;;;;;;;5.34;99.79;101629.13;5029346;28;20058;-66
2022/12/06 10:55:53;;;;;;;58.53;28.90;;;;;;;5.48;98.67;101631.22;4996139;28;20049;-66
2022/12/06 10:58:42;;;;;;;63.58;28.17;;;;;;;5.58;98.31;101633.22;5035832;28;20775;-66
2022/12/06 11:01:19;;;;;;;65.78;29.48;;;;;;;4.66;98.70;101632.38;5033662;28;20057;-67
2022/12/06 11:04:11;;;;;;;70.95;31.45;;;;;;;5.12;100.00;101631.06;5035559;28;20053;-66
2022/12/06 11:06:44;;;;;;;69.43;31.67;;;;;;;5.23;100.00;101632.84;5034629;28;20045;-65
2022/12/06 11:09:25;;;;;;;72.07;33.20;;;;;;;5.39;100.00;101635.47;5033632;28;20084;-65
2022/12/06 11:11:52;;;;;;;74.38;33.63;;;;;;;5.55;100.00;101623.63;5031712;28;20053;-66
2022/12/06 11:14:34;;;;;;;70.60;31.23;;;;;;;5.93;98.74;101621.84;4987895;28;20441;-67
2022/12/06 11:17:04;;;;;;;66.03;31.92;;;;;;;5.78;97.48;101613.44;5028344;28;20049;-66
2022/12/06 11:19:35;;;;;;;64.15;30.35;;;;;;;6.04;96.94;101607.13;5033576;28;20457;-66
2022/12/06 11:22:14;;;;;;;;;;;;;;;5.80;95.57;101608.56;5020786;28;20056;-67
2022/12/06 11:24:48;;;;;;;61.80;28.73;;;;;;;5.69;96.96;101613.09;5017272;28;19921;-67
2022/12/06 11:27:25;;;;;;;65.95;28.88;;;;;;;5.73;97.18;101608.78;5049549;28;20044;-67
2022/12/06 11:29:53;;;;;;;61.30;30.23;;;;;;;5.59;96.08;101602.09;5033798;28;20041;-68
2022/12/06 11:32:20;;;;;;;66.18;30.67;;;;;;;5.35;96.01;101604.28;5033427;28;20056;-67
2022/12/06 11:34:50;;;;;;;65.38;30.17;;;;;;;4.93;98.48;101600.56;4983901;28;20523;-68
2022/12/06 11:37:23;;;;;;;65.40;30.75;;;;;;;5.17;99.24;101598.34;5028269;28;20065;-72
2022/12/06 11:40:04;;;;;;;73.43;31.90;;;;;;;4.94;99.63;101604.09;5029062;28;20045;-69
2022/12/06 11:42:31;;;;;;;78.55;33.80;;;;;;;4.88;100.00;101596.94;5032395;28;20049;-68
2022/12/06 11:45:12;;;;;;;75.07;32.58;;;;;;;4.78;100.00;101592.16;5032212;28;20053;-69
2022/12/06 11:47:39;;;;;;;79.80;33.42;;;;;;;4.70;100.00;101597.25;5007639;28;20057;-68
2022/12/06 11:50:15;;;;;;;81.97;34.85;;;;;;;4.78;100.00;101583.97;4998308;28;20042;-69
2022/12/06 11:52:57;;;;;;;87.68;35.88;;;;;;;4.89;100.00;101579.47;5032215;28;20046;-68
2022/12/06 11:55:27;;;;;;;92.32;37.53;;;;;;;5.02;100.00;101576.34;5000118;28;20500;-68
2022/12/06 11:58:02;;;;;;;93.93;40.47;;;;;;;5.07;100.00;101566.31;5037348;28;20411;-69
2022/12/06 12:00:29;;;;;;;99.03;41.60;;;;;;;5.01;100.00;101566.50;5031680;28;20056;-69